Time;durP1;ratioP1;P1;durP2;ratioP2;P2;SDS_P1;SDS_P2;PMS_P1;PMS_P2;Temp;Humidity;BMP_temperature;BMP_pressure;BME280_temperature;BME280_humidity;BME280_pressure;Samples;Min_cycle;Max_cycle;Signal;HPM_P1;HPM_P2
2021/12/21 00:00:18;;;;;;;35.40;27.13;;;;;;;-2.25;92.79;96237.19;6304335;22;20007;-63
2021/12/21 00:02:47;;;;;;;34.33;26.30;;;;;;;-2.27;93.36;96236.41;6305290;22;20754;-62
2021/12/21 00:05:18;;;;;;;39.25;27.80;;;;;;;-2.29;92.93;96233.88;6184016;22;20020;-63
2021/12/21 00:07:45;;;;;;;36.88;26.98;;;;;;;-2.25;94.27;96234.63;6179149;23;20005;-63
2021/12/21 00:10:11;;;;;;;35.65;27.23;;;;;;;-2.19;94.19;96237.00;6179042;23;20095;-63
2021/12/21 00:12:46;;;;;;;35.90;28.42;;;;;;;-2.25;93.73;96234.63;6179247;23;20058;-63
2021/12/21 00:15:22;;;;;;;37.17;25.60;;;;;;;-2.07;93.02;96228.00;6154885;23;20001;-63
2021/12/21 00:25:18;;;;;;;33.33;24.98;;;;;;;-2.21;92.89;96226.75;6179366;23;20005;-63
2021/12/21 00:27:46;;;;;;;40.30;26.55;;;;;;;-2.21;92.82;96237.06;6178585;23;20442;-63
2021/12/21 00:30:12;;;;;;;34.15;25.77;;;;;;;-2.19;92.60;96231.84;6179138;23;20008;-63
2021/12/21 00:32:37;;;;;;;33.50;24.85;;;;;;;-2.24;93.31;96231.97;6179251;23;20016;-63
2021/12/21 00:35:04;;;;;;;34.97;27.33;;;;;;;-2.24;92.84;96224.25;6179010;23;20001;-63
2021/12/21 00:37:30;;;;;;;30.02;24.55;;;;;;;-2.21;92.47;96228.47;6179133;23;20009;-62
2021/12/21 00:39:55;;;;;;;33.15;24.65;;;;;;;-2.17;91.96;96230.03;6179228;23;20059;-63
2021/12/21 00:42:21;;;;;;;29.13;23.10;;;;;;;-2.26;92.42;96236.34;6179207;23;20394;-63
2021/12/21 00:44:47;;;;;;;28.77;22.65;;;;;;;-2.05;91.07;96228.78;6179212;23;20122;-62
2021/12/21 00:47:19;;;;;;;27.52;21.63;;;;;;;-2.15;91.35;96230.84;6179061;23;20032;-63
2021/12/21 00:49:46;;;;;;;29.25;22.15;;;;;;;-2.15;90.79;96233.41;6178987;23;20009;-62
2021/12/21 00:52:22;;;;;;;28.42;21.40;;;;;;;-2.20;91.43;96231.00;6179057;23;20092;-63
2021/12/21 00:54:51;;;;;;;25.90;21.35;;;;;;;-2.26;90.97;96230.34;6179421;23;19997;-62
2021/12/21 00:57:17;;;;;;;29.00;21.05;;;;;;;-2.29;91.57;96220.16;6152733;23;20344;-62
2021/12/21 00:59:42;;;;;;;26.90;21.40;;;;;;;-2.33;92.16;96224.56;6177826;23;19997;-62
2021/12/21 01:02:08;;;;;;;30.50;24.10;;;;;;;-2.15;91.40;96220.50;6152505;23;20340;-62
2021/12/21 01:04:39;;;;;;;28.20;22.05;;;;;;;-2.15;90.75;96217.94;6178870;23;20024;-62
2021/12/21 01:12:19;;;;;;;33.30;23.98;;;;;;;-2.24;92.06;96210.50;6179039;23;20553;-61
2021/12/21 01:17:22;;;;;;;32.75;23.23;;;;;;;-2.16;91.96;96208.50;6178459;23;20338;-61
2021/12/21 01:19:59;;;;;;;29.77;22.33;;;;;;;-2.29;92.34;96202.09;6179144;23;20318;-61
2021/12/21 01:25:53;;;;;;;31.58;24.42;;;;;;;-2.33;92.90;96199.59;6179132;23;20012;-61
2021/12/21 01:28:06;;;;;;;;;;;;;;;-2.24;92.01;96213.09;6173711;22;20027;-61
2021/12/21 01:30:59;;;;;;;29.77;22.45;;;;;;;-2.37;92.11;96199.75;6178881;23;20392;-62
2021/12/21 01:33:58;;;;;;;31.90;24.10;;;;;;;-2.35;92.19;96206.53;6178850;23;20044;-61
2021/12/21 01:36:34;;;;;;;25.92;22.45;;;;;;;-2.36;92.37;96207.44;6178357;23;20001;-62
2021/12/21 01:39:15;;;;;;;29.45;23.45;;;;;;;-2.42;92.98;96217.94;6178819;23;20100;-61
2021/12/21 01:49:41;;;;;;;31.58;25.42;;;;;;;-2.49;93.10;96219.06;6178777;23;20476;-61
2021/12/21 01:52:10;;;;;;;29.58;23.33;;;;;;;-2.46;93.58;96219.78;6178783;23;20013;-62
2021/12/21 01:54:36;;;;;;;32.85;25.02;;;;;;;-2.43;93.48;96224.00;6179090;23;20001;-61
2021/12/21 01:57:03;;;;;;;29.90;24.77;;;;;;;-2.46;93.56;96218.94;6152324;23;20013;-63
2021/12/21 01:59:29;;;;;;;31.23;24.30;;;;;;;-2.49;93.02;96219.88;6178408;23;20029;-62
2021/12/21 02:02:00;;;;;;;29.27;22.65;;;;;;;-2.47;92.99;96230.16;6178676;23;20001;-62
2021/12/21 02:04:26;;;;;;;31.52;23.60;;;;;;;-2.43;93.56;96231.75;6246665;22;20020;-61
2021/12/21 02:06:52;;;;;;;34.15;24.02;;;;;;;-2.46;93.55;96224.94;6304923;22;20003;-61
2021/12/21 02:09:19;;;;;;;33.88;25.48;;;;;;;-2.45;93.79;96223.22;6303095;22;20007;-64
2021/12/21 02:11:46;;;;;;;31.92;25.55;;;;;;;-2.34;93.58;96218.53;6307426;22;20010;-62
2021/12/21 02:14:13;;;;;;;29.90;24.73;;;;;;;-2.33;93.46;96227.94;6308344;22;20603;-61
2021/12/21 02:17:30;;;;;;;28.95;24.60;;;;;;;-2.37;93.03;96220.38;6308577;22;20008;-61
2021/12/21 02:19:40;;;;;;;29.73;22.60;;;;;;;-2.44;92.84;96227.47;6305329;22;19999;-61
2021/12/21 02:22:13;;;;;;;29.45;23.95;;;;;;;-2.51;92.44;96220.84;6308180;22;20034;-61
2021/12/21 02:25:07;;;;;;;29.10;23.17;;;;;;;-2.54;93.24;96220.91;6308380;22;20632;-61
2021/12/21 02:27:41;;;;;;;31.83;23.27;;;;;;;-2.41;92.98;96221.38;6307957;22;20011;-62
2021/12/21 02:30:14;;;;;;;28.73;22.10;;;;;;;-2.42;92.81;96212.78;6308168;22;20086;-62
2021/12/21 02:32:40;;;;;;;25.73;20.63;;;;;;;-2.49;92.18;96219.06;6332735;22;20584;-62
2021/12/21 02:35:07;;;;;;;30.30;22.75;;;;;;;-2.49;93.22;96217.28;6308204;22;20337;-62
2021/12/21 02:37:32;;;;;;;31.77;22.52;;;;;;;-2.51;92.89;96207.94;6308573;22;20010;-62
2021/12/21 02:39:57;;;;;;;32.88;24.98;;;;;;;-2.43;93.07;96213.69;6308307;22;20343;-61
2021/12/21 02:42:23;;;;;;;25.48;21.45;;;;;;;-2.36;92.60;96202.28;6308318;22;20427;-62
2021/12/21 02:44:49;;;;;;;32.85;23.77;;;;;;;-2.36;92.42;96206.59;6308250;22;20104;-61
2021/12/21 02:47:14;;;;;;;31.27;23.52;;;;;;;-2.41;92.63;96204.16;6307233;22;20026;-61
2021/12/21 02:49:40;;;;;;;32.88;24.65;;;;;;;-2.39;92.39;96191.22;6308392;22;20418;-61
2021/12/21 02:52:05;;;;;;;34.28;27.17;;;;;;;-2.36;93.22;96201.44;6308248;22;19999;-61
2021/12/21 02:54:31;;;;;;;35.35;27.05;;;;;;;-2.28;92.45;96196.84;6308440;22;20006;-62
2021/12/21 02:56:56;;;;;;;33.25;25.77;;;;;;;-2.27;92.12;96195.13;6308096;22;20086;-61
2021/12/21 02:59:22;;;;;;;33.30;24.23;;;;;;;-2.53;93.16;96192.50;6308197;22;20005;-62
2021/12/21 03:01:48;;;;;;;31.50;25.27;;;;;;;-2.60;93.75;96193.59;6308493;22;20021;-61
2021/12/21 03:04:13;;;;;;;31.80;25.85;;;;;;;-2.49;92.99;96185.53;6238142;22;20017;-61
2021/12/21 03:11:56;;;;;;;32.03;24.77;;;;;;;-2.67;94.57;96189.53;6181927;23;20488;-62
2021/12/21 03:14:23;;;;;;;33.78;25.20;;;;;;;-2.68;94.53;96195.56;6181408;23;20017;-62
2021/12/21 03:16:48;;;;;;;31.67;25.25;;;;;;;-2.62;95.17;96188.50;6181075;23;20000;-62
2021/12/21 03:19:14;;;;;;;30.23;24.75;;;;;;;-2.52;94.36;96190.78;6181518;23;20067;-62
2021/12/21 03:21:40;;;;;;;35.22;26.15;;;;;;;-2.57;94.80;96184.91;6181070;23;20005;-62
2021/12/21 03:24:07;;;;;;;33.10;26.05;;;;;;;-2.49;94.83;96193.25;6179839;22;20005;-61
2021/12/21 03:26:33;;;;;;;35.50;25.42;;;;;;;-2.48;93.39;96188.03;6179477;23;20008;-61
2021/12/21 03:28:59;;;;;;;30.65;25.38;;;;;;;-2.48;93.94;96185.47;6179222;23;20348;-61
2021/12/21 03:31:25;;;;;;;31.58;24.70;;;;;;;-2.58;94.49;96186.66;6179489;23;20001;-61
2021/12/21 03:33:50;;;;;;;35.38;26.42;;;;;;;-2.65;94.05;96182.59;6153056;23;20016;-61
2021/12/21 03:36:17;;;;;;;34.55;26.23;;;;;;;-2.72;94.74;96179.38;6179772;23;20383;-63
2021/12/21 03:38:54;;;;;;;30.92;24.27;;;;;;;-2.63;94.55;96173.91;6179502;23;20009;-63
2021/12/21 03:41:20;;;;;;;29.23;23.33;;;;;;;-2.62;94.24;96172.19;6179346;23;20449;-62
2021/12/21 03:43:46;;;;;;;31.08;24.67;;;;;;;-2.64;94.24;96169.66;6179348;23;20016;-62
2021/12/21 03:46:14;;;;;;;35.13;24.02;;;;;;;-2.74;93.87;96178.59;6179550;23;20013;-61
2021/12/21 03:48:44;;;;;;;31.45;24.58;;;;;;;-2.82;94.20;96181.41;6179051;23;20437;-61
2021/12/21 03:51:10;;;;;;;36.05;24.77;;;;;;;-2.68;94.11;96177.53;6179590;23;20077;-61
2021/12/21 03:53:36;;;;;;;31.83;23.65;;;;;;;-2.60;93.28;96178.97;6179545;23;20001;-61
2021/12/21 03:56:22;;;;;;;30.80;22.83;;;;;;;-2.63;93.41;96178.25;6179356;23;20230;-61
2021/12/21 03:58:47;;;;;;;34.97;23.75;;;;;;;-2.66;94.34;96181.75;6179147;23;20005;-62
2021/12/21 04:01:13;;;;;;;30.00;23.42;;;;;;;-2.72;94.23;96174.22;6179375;23;20558;-61
2021/12/21 04:03:39;;;;;;;32.25;24.50;;;;;;;-2.63;93.77;96178.25;6179392;23;20062;-61
2021/12/21 04:06:05;;;;;;;27.77;22.80;;;;;;;-2.70;94.25;96174.16;6179392;23;20005;-61
2021/12/21 04:08:31;;;;;;;29.65;22.83;;;;;;;-2.74;94.82;96176.00;6179324;23;20081;-62
2021/12/21 04:10:57;;;;;;;27.30;22.10;;;;;;;-2.74;93.95;96179.41;6179193;23;20005;-61
2021/12/21 04:13:22;;;;;;;29.00;22.80;;;;;;;-2.73;94.28;96175.13;6179289;23;20387;-61
2021/12/21 04:15:52;;;;;;;27.98;22.65;;;;;;;-2.76;93.87;96181.19;6179215;23;20008;-61
2021/12/21 04:18:20;;;;;;;29.50;22.58;;;;;;;-2.84;94.67;96175.44;6179330;23;20016;-61
2021/12/21 04:20:45;;;;;;;29.35;23.83;;;;;;;-2.68;93.80;96173.22;6153067;23;20552;-61
2021/12/21 04:23:11;;;;;;;31.00;24.10;;;;;;;-2.63;92.94;96171.34;6179319;23;20009;-61
2021/12/21 04:25:36;;;;;;;32.35;23.83;;;;;;;-2.77;93.07;96169.19;6179334;23;20004;-62
2021/12/21 04:28:02;;;;;;;30.20;24.88;;;;;;;-2.67;92.95;96168.91;6179093;23;20011;-61
2021/12/21 04:30:28;;;;;;;29.98;22.55;;;;;;;-2.74;93.01;96176.84;6179221;23;20008;-62
2021/12/21 04:32:54;;;;;;;30.80;22.95;;;;;;;-2.76;93.16;96173.47;6179227;23;20001;-61
2021/12/21 04:35:20;;;;;;;27.08;21.52;;;;;;;-2.69;92.61;96176.69;6178276;23;20013;-61
2021/12/21 04:37:52;;;;;;;27.77;20.70;;;;;;;-2.72;92.37;96176.78;6178969;23;20009;-62
2021/12/21 04:40:21;;;;;;;25.92;21.15;;;;;;;-2.90;93.03;96184.22;6179360;23;20035;-61
2021/12/21 04:42:46;;;;;;;25.88;21.63;;;;;;;-2.81;92.86;96179.66;6152786;23;20318;-61
2021/12/21 04:45:12;;;;;;;27.73;23.73;;;;;;;-2.86;93.70;96182.38;6179295;23;20005;-62
2021/12/21 04:47:37;;;;;;;28.65;22.52;;;;;;;-2.93;93.92;96180.88;6152611;23;20329;-63
2021/12/21 04:50:03;;;;;;;28.27;23.52;;;;;;;-2.99;93.94;96189.63;6179227;23;20005;-63
2021/12/21 04:52:29;;;;;;;28.05;21.73;;;;;;;-3.04;94.00;96184.63;6179524;22;20001;-63
2021/12/21 04:54:55;;;;;;;27.55;22.38;;;;;;;-3.03;94.80;96182.88;6179140;23;20489;-63
2021/12/21 04:57:24;;;;;;;29.73;23.08;;;;;;;-2.84;94.74;96182.31;6179066;23;20009;-64
2021/12/21 04:59:50;;;;;;;29.65;22.63;;;;;;;-2.88;94.17;96182.44;6178827;23;20012;-62
2021/12/21 05:02:16;;;;;;;26.65;21.73;;;;;;;-2.88;93.88;96177.28;6179301;23;20006;-62
2021/12/21 05:04:41;;;;;;;27.58;21.80;;;;;;;-2.92;93.36;96178.25;6179033;23;20459;-62
2021/12/21 05:07:07;;;;;;;29.52;22.63;;;;;;;-2.94;93.41;96172.31;6179171;23;20029;-62
2021/12/21 05:09:41;;;;;;;29.33;23.88;;;;;;;-2.84;93.67;96174.59;6179022;23;20009;-62
2021/12/21 05:12:08;;;;;;;27.65;22.77;;;;;;;-2.70;93.18;96166.41;6178943;23;20012;-62
2021/12/21 05:14:33;;;;;;;27.67;22.58;;;;;;;-2.91;93.46;96161.91;6152715;23;20084;-62
2021/12/21 05:16:59;;;;;;;27.33;21.27;;;;;;;-2.82;93.77;96162.50;6179066;23;20040;-62
2021/12/21 05:19:25;;;;;;;31.60;22.63;;;;;;;-2.90;93.54;96166.16;6178950;23;20100;-62
2021/12/21 05:21:50;;;;;;;28.63;22.95;;;;;;;-3.02;93.45;96167.41;6178519;23;20385;-62
2021/12/21 05:24:17;;;;;;;26.88;21.88;;;;;;;-3.07;93.58;96176.16;6179028;23;20005;-62
2021/12/21 05:26:47;;;;;;;29.83;24.13;;;;;;;-3.15;94.11;96176.38;6178945;23;20310;-62
2021/12/21 05:29:13;;;;;;;29.40;23.23;;;;;;;-3.28;93.73;96178.47;6178964;23;20005;-62
2021/12/21 05:31:38;;;;;;;29.73;23.75;;;;;;;-3.35;94.70;96177.81;6152512;23;20015;-62
2021/12/21 05:34:04;;;;;;;30.27;22.73;;;;;;;-3.26;94.76;96178.44;6178960;23;20506;-62
2021/12/21 05:36:29;;;;;;;28.58;24.10;;;;;;;-3.06;94.41;96183.84;6178860;23;20005;-62
2021/12/21 05:39:00;;;;;;;29.65;23.90;;;;;;;-3.07;94.61;96178.72;6178823;23;20001;-62
2021/12/21 05:41:40;;;;;;;31.90;24.40;;;;;;;-2.91;93.42;96181.66;6178929;23;20039;-62
2021/12/21 05:44:06;;;;;;;29.60;23.33;;;;;;;-3.01;93.09;96188.84;6178836;23;20009;-62
2021/12/21 05:46:31;;;;;;;30.70;23.25;;;;;;;-2.96;93.90;96183.53;6177958;23;20009;-62
2021/12/21 05:48:57;;;;;;;31.83;25.58;;;;;;;-2.94;93.32;96174.91;6178672;23;20009;-62
2021/12/21 05:51:28;;;;;;;28.73;21.25;;;;;;;-3.08;94.14;96177.91;6178883;23;20009;-62
2021/12/21 05:53:56;;;;;;;27.55;21.92;;;;;;;-2.96;93.86;96173.25;6178867;23;20091;-62
2021/12/21 05:56:22;;;;;;;34.03;25.90;;;;;;;-3.04;93.82;96173.47;6178876;23;20080;-62
2021/12/21 05:58:47;;;;;;;27.55;22.90;;;;;;;-2.99;93.94;96173.34;6178659;23;20024;-62
2021/12/21 06:01:13;;;;;;;28.13;22.15;;;;;;;-3.14;94.18;96172.09;6178881;23;20005;-62
2021/12/21 06:03:38;;;;;;;27.42;23.00;;;;;;;-3.19;95.23;96174.78;6178289;23;20013;-62
2021/12/21 06:06:10;;;;;;;30.10;23.30;;;;;;;-3.07;94.21;96168.41;6177912;23;20453;-64
2021/12/21 06:08:35;;;;;;;30.90;22.77;;;;;;;-3.05;94.78;96171.78;6178405;23;20005;-63
2021/12/21 06:11:05;;;;;;;29.10;23.33;;;;;;;-3.08;94.11;96171.88;6178656;23;20059;-62
2021/12/21 06:13:59;;;;;;;28.75;22.98;;;;;;;-3.03;93.79;96170.88;6178442;23;20001;-62
2021/12/21 06:27:02;;;;;;;30.33;25.98;;;;;;;-3.24;95.09;96187.78;6178507;23;20005;-62
2021/12/21 06:29:28;;;;;;;27.73;23.33;;;;;;;-3.24;94.73;96189.53;6178515;23;20009;-62
2021/12/21 06:31:54;;;;;;;29.98;22.52;;;;;;;-3.36;95.51;96188.16;6177612;23;20005;-62
2021/12/21 06:34:20;;;;;;;29.23;23.75;;;;;;;-3.39;95.90;96194.25;6177766;23;20019;-62
2021/12/21 06:36:49;;;;;;;35.03;23.30;;;;;;;-3.34;95.41;96192.38;6178255;23;20001;-62
2021/12/21 06:39:15;;;;;;;31.52;23.58;;;;;;;-3.14;94.83;96193.50;6178407;23;20472;-61
2021/12/21 06:41:40;;;;;;;30.17;23.45;;;;;;;-3.15;95.39;96194.41;6178210;23;19997;-62
2021/12/21 06:44:09;;;;;;;30.30;22.40;;;;;;;-3.25;94.96;96198.16;6178382;23;20126;-61
2021/12/21 06:46:49;;;;;;;29.83;23.08;;;;;;;-3.24;94.27;96203.25;6152204;22;19997;-62
2021/12/21 06:52:04;;;;;;;30.83;23.52;;;;;;;-3.26;94.13;96194.72;6178358;23;20020;-62
2021/12/21 06:54:30;;;;;;;30.48;22.25;;;;;;;-3.43;94.48;96194.38;6178394;23;20065;-62
2021/12/21 06:56:56;;;;;;;28.92;22.90;;;;;;;-3.52;94.63;96191.19;6178144;23;20068;-61
2021/12/21 06:59:24;;;;;;;27.23;20.65;;;;;;;-3.13;93.08;96190.03;6179494;23;20066;-61
2021/12/21 07:01:50;;;;;;;29.75;22.88;;;;;;;-3.42;93.67;96186.59;6152801;22;20012;-62
2021/12/21 07:04:17;;;;;;;30.02;23.98;;;;;;;-3.32;93.79;96189.75;6179805;23;20013;-62
2021/12/21 07:06:47;;;;;;;27.95;21.92;;;;;;;-3.47;94.50;96186.72;6179361;23;20496;-61
2021/12/21 07:11:46;;;;;;;27.10;21.33;;;;;;;-3.23;94.15;96186.06;6179642;23;20036;-62
2021/12/21 07:19:44;;;;;;;32.58;23.85;;;;;;;-3.58;95.92;96193.06;6179303;23;20051;-62
2021/12/21 07:22:09;;;;;;;30.73;24.42;;;;;;;-3.58;95.38;96183.63;6179590;23;20058;-62
2021/12/21 07:24:35;;;;;;;31.13;23.33;;;;;;;-3.60;95.17;96193.13;6178849;23;20072;-62
2021/12/21 07:27:01;;;;;;;31.20;23.58;;;;;;;-3.63;95.62;96186.34;6179437;23;20090;-61
2021/12/21 07:29:26;;;;;;;39.50;26.25;;;;;;;-3.51;95.21;96192.88;6179517;23;20009;-62
2021/12/21 07:31:52;;;;;;;32.60;24.08;;;;;;;-3.63;95.10;96194.06;6179254;23;20005;-62
2021/12/21 07:34:17;;;;;;;34.95;24.67;;;;;;;-3.58;95.04;96193.94;6179605;23;20005;-62
2021/12/21 07:36:43;;;;;;;30.70;23.83;;;;;;;-3.52;95.28;96201.47;6179298;23;20054;-62
2021/12/21 07:39:13;;;;;;;32.88;24.23;;;;;;;-3.38;95.16;96202.81;6179526;23;20001;-61
2021/12/21 07:41:40;;;;;;;39.13;25.52;;;;;;;-3.37;94.73;96202.75;6179328;23;20005;-61
2021/12/21 07:44:06;;;;;;;31.77;25.30;;;;;;;-3.51;96.07;96208.31;6179443;23;20502;-62
2021/12/21 07:46:32;;;;;;;28.95;23.75;;;;;;;-3.55;95.69;96209.28;6179419;23;20009;-63
2021/12/21 07:48:57;;;;;;;31.80;25.25;;;;;;;-3.54;96.19;96217.84;6179130;23;20005;-62
2021/12/21 07:51:23;;;;;;;32.40;23.73;;;;;;;-3.39;94.94;96219.16;6152576;23;20452;-62
2021/12/21 07:53:49;;;;;;;32.72;24.98;;;;;;;-3.56;95.12;96224.75;6179098;23;20085;-63
2021/12/21 07:56:16;;;;;;;29.77;23.48;;;;;;;-3.58;95.20;96223.97;6178839;23;20029;-63
2021/12/21 07:58:42;;;;;;;35.13;25.15;;;;;;;-3.65;95.95;96224.16;6179307;23;20531;-60
2021/12/21 08:01:08;;;;;;;30.90;24.80;;;;;;;-3.46;94.92;96218.50;6178550;23;20353;-61
2021/12/21 08:03:34;;;;;;;34.42;25.38;;;;;;;-3.33;94.69;96224.97;6178281;23;20010;-61
2021/12/21 08:06:06;;;;;;;32.50;24.50;;;;;;;-3.41;94.57;96220.94;6178588;23;20005;-62
2021/12/21 08:08:34;;;;;;;33.17;25.55;;;;;;;-3.51;95.40;96218.59;6178044;23;20009;-61
2021/12/21 08:11:16;;;;;;;32.95;25.58;;;;;;;-3.65;95.35;96229.28;6177907;23;20005;-61
2021/12/21 08:13:44;;;;;;;31.90;23.92;;;;;;;-3.64;96.16;96225.81;6176624;23;20118;-54
2021/12/21 08:16:11;;;;;;;40.30;29.25;;;;;;;-3.63;96.82;96224.13;6178745;23;20004;-57
2021/12/21 08:18:37;;;;;;;38.20;27.23;;;;;;;-3.54;96.14;96233.28;6179254;23;20344;-58
2021/12/21 08:21:02;;;;;;;34.80;27.35;;;;;;;-3.48;95.78;96227.97;6179017;23;20001;-57
2021/12/21 08:23:28;;;;;;;31.33;25.10;;;;;;;-3.50;96.25;96233.16;6153012;23;20050;-57
2021/12/21 08:25:56;;;;;;;30.83;25.08;;;;;;;-3.54;95.91;96229.00;6178998;23;20005;-52
2021/12/21 08:28:23;;;;;;;28.60;22.83;;;;;;;-3.54;95.62;96236.72;6179078;23;20001;-57
2021/12/21 08:30:48;;;;;;;31.98;24.85;;;;;;;-3.35;95.90;96241.34;6177897;23;20438;-57
2021/12/21 08:33:14;;;;;;;33.67;25.48;;;;;;;-3.41;95.70;96241.53;6178501;23;20025;-56
2021/12/21 08:35:40;;;;;;;36.75;26.67;;;;;;;-3.41;95.92;96241.53;6178517;23;20031;-53
2021/12/21 08:38:09;;;;;;;29.73;23.90;;;;;;;-3.31;95.78;96243.81;6178633;23;20005;-55
2021/12/21 08:40:39;;;;;;;33.55;27.40;;;;;;;-3.32;95.07;96241.25;6178535;23;20342;-56
2021/12/21 08:43:14;;;;;;;37.22;26.77;;;;;;;-3.27;94.98;96239.41;6176760;23;20009;-58
2021/12/21 08:45:42;;;;;;;31.85;25.10;;;;;;;-3.19;94.81;96236.59;6178332;23;20013;-58
2021/12/21 08:48:08;;;;;;;28.42;23.98;;;;;;;-3.30;94.68;96234.34;6178294;23;20005;-55
2021/12/21 08:50:34;;;;;;;28.48;22.60;;;;;;;-3.24;93.94;96241.88;6178797;23;20091;-55
2021/12/21 08:53:00;;;;;;;32.65;23.70;;;;;;;-3.31;93.73;96236.09;6176316;23;20061;-58
2021/12/21 08:55:26;;;;;;;30.92;23.67;;;;;;;-3.24;93.92;96238.47;6151710;23;20006;-58
2021/12/21 08:57:52;;;;;;;33.28;26.13;;;;;;;-3.24;93.59;96239.31;6151603;22;20004;-58
2021/12/21 09:00:18;;;;;;;32.97;25.27;;;;;;;-3.28;94.31;96244.59;6177713;23;20066;-56
2021/12/21 09:02:44;;;;;;;29.80;24.55;;;;;;;-3.24;93.16;96239.31;6175909;23;20080;-57
2021/12/21 09:05:19;;;;;;;29.83;22.63;;;;;;;-3.34;92.74;96253.34;6175399;23;20028;-59
2021/12/21 09:07:47;;;;;;;29.92;24.13;;;;;;;-3.34;94.25;96253.34;6177740;23;20009;-55
2021/12/21 09:10:15;;;;;;;30.88;24.23;;;;;;;-3.32;93.76;96252.44;6177619;23;20035;-56
2021/12/21 09:12:41;;;;;;;30.42;24.63;;;;;;;-3.33;92.74;96255.03;6178332;23;20498;-58
2021/12/21 09:15:08;;;;;;;30.95;24.83;;;;;;;-3.39;93.37;96263.75;6178928;23;20005;-58
2021/12/21 09:17:33;;;;;;;27.70;22.80;;;;;;;-3.06;91.63;96268.00;6178657;23;20347;-58
2021/12/21 09:19:59;;;;;;;31.65;25.13;;;;;;;-3.24;92.65;96259.91;6178304;23;20009;-58
2021/12/21 09:22:25;;;;;;;26.90;23.83;;;;;;;-3.34;92.88;96266.22;6179072;23;20482;-58
2021/12/21 09:24:50;;;;;;;33.45;25.73;;;;;;;-3.33;92.68;96270.47;6178499;23;20009;-58
2021/12/21 09:27:16;;;;;;;30.02;24.98;;;;;;;-3.32;93.31;96264.44;6178397;22;20026;-58
2021/12/21 09:29:42;;;;;;;32.83;26.00;;;;;;;-3.27;93.02;96256.59;6177877;23;20087;-58
2021/12/21 09:32:13;;;;;;;27.67;23.63;;;;;;;-3.22;93.10;96267.59;6179042;23;20011;-57
2021/12/21 09:34:39;;;;;;;40.25;29.73;;;;;;;-3.04;93.11;96266.22;6178597;23;20333;-58
2021/12/21 09:37:05;;;;;;;32.15;26.42;;;;;;;-2.79;92.24;96268.94;6179181;23;20001;-58
2021/12/21 09:39:31;;;;;;;27.77;23.80;;;;;;;-2.97;91.25;96267.75;6178531;23;20024;-57
2021/12/21 09:41:56;;;;;;;36.22;26.45;;;;;;;-3.02;91.50;96274.75;6178748;23;20349;-59
2021/12/21 09:44:22;;;;;;;33.63;25.73;;;;;;;-2.97;91.29;96275.47;6179031;23;20005;-58
2021/12/21 09:46:47;;;;;;;31.55;24.83;;;;;;;-2.95;90.64;96278.00;6178575;23;20001;-59
2021/12/21 09:49:15;;;;;;;29.45;22.92;;;;;;;-2.93;90.88;96279.66;6178917;23;20011;-58
2021/12/21 09:51:41;;;;;;;28.42;21.88;;;;;;;-2.91;90.67;96282.16;6178683;23;20005;-58
2021/12/21 09:54:08;;;;;;;31.67;24.27;;;;;;;-2.83;90.60;96282.81;6178966;23;20092;-59
2021/12/21 09:56:34;;;;;;;30.65;22.98;;;;;;;-2.79;90.19;96279.25;6178766;23;20005;-58
2021/12/21 09:59:00;;;;;;;28.60;22.25;;;;;;;-2.69;89.98;96282.38;6178660;23;20223;-58
2021/12/21 10:01:26;;;;;;;29.30;24.27;;;;;;;-2.53;89.80;96284.50;6178837;23;20122;-59
2021/12/21 10:03:51;;;;;;;29.60;23.80;;;;;;;-2.48;89.31;96282.63;6178386;23;20420;-59
2021/12/21 10:06:17;;;;;;;53.03;36.85;;;;;;;-2.38;89.48;96280.59;6178864;23;20486;-59
2021/12/21 10:08:42;;;;;;;31.02;25.17;;;;;;;-2.17;89.60;96279.06;6178359;23;20015;-58
2021/12/21 10:11:18;;;;;;;27.35;22.55;;;;;;;-2.00;88.01;96277.69;6178680;23;20429;-59
2021/12/21 10:13:43;;;;;;;36.03;26.95;;;;;;;-2.03;87.28;96279.47;6178715;23;20009;-57
2021/12/21 10:16:10;;;;;;;29.55;23.65;;;;;;;-1.98;87.78;96281.91;6178570;23;20012;-59
2021/12/21 10:18:43;;;;;;;34.92;25.20;;;;;;;-2.13;87.15;96288.38;6178743;23;20001;-61
2021/12/21 10:21:14;;;;;;;28.63;21.98;;;;;;;-2.18;86.99;96288.56;6178831;23;20063;-58
2021/12/21 10:23:47;;;;;;;27.90;23.58;;;;;;;-2.00;87.90;96285.41;6178581;23;20459;-58
2021/12/21 10:26:22;;;;;;;26.35;23.15;;;;;;;-1.94;87.50;96287.78;6178713;23;20444;-59
2021/12/21 10:28:50;;;;;;;29.25;22.52;;;;;;;-1.98;87.07;96275.88;6178325;23;20029;-59
2021/12/21 10:31:27;;;;;;;29.70;23.00;;;;;;;-1.96;85.82;96272.38;6178518;23;20005;-58
2021/12/21 10:33:54;;;;;;;34.53;25.17;;;;;;;-1.93;86.10;96276.56;6179571;23;20024;-58
2021/12/21 10:36:20;;;;;;;32.83;24.17;;;;;;;-1.83;86.54;96262.47;6179848;23;20016;-58
2021/12/21 10:38:52;;;;;;;36.83;27.52;;;;;;;-1.53;86.81;96262.31;6179662;23;20005;-58
2021/12/21 10:41:19;;;;;;;30.40;25.17;;;;;;;-1.33;85.46;96250.44;6179810;23;20496;-58
2021/12/21 10:44:04;;;;;;;33.60;26.15;;;;;;;-1.27;84.29;96245.03;6179907;23;20322;-58
2021/12/21 10:46:32;;;;;;;32.28;25.30;;;;;;;-1.18;85.26;96243.84;6179583;23;20017;-58
2021/12/21 10:49:25;;;;;;;30.67;23.02;;;;;;;-0.69;82.94;96241.16;6180069;23;20440;-59
2021/12/21 10:51:58;;;;;;;26.52;22.45;;;;;;;-0.47;82.09;96229.97;6179057;23;20009;-59
2021/12/21 10:54:27;;;;;;;36.95;27.67;;;;;;;-0.44;80.99;96230.72;6180099;23;20080;-59
2021/12/21 10:57:06;;;;;;;35.63;27.40;;;;;;;-0.40;80.73;96230.59;6179499;23;20012;-59
2021/12/21 10:59:34;;;;;;;30.15;24.88;;;;;;;-0.17;81.13;96234.81;6179597;23;20008;-60
2021/12/21 11:02:10;;;;;;;30.55;24.80;;;;;;;0.19;80.22;96231.63;6179373;23;20365;-59
2021/12/21 11:04:42;;;;;;;42.05;28.85;;;;;;;0.21;77.82;96223.75;6179676;23;20017;-58
2021/12/21 11:07:24;;;;;;;32.17;24.52;;;;;;;0.37;78.59;96216.19;6179641;23;20005;-58
2021/12/21 11:10:15;;;;;;;32.95;25.02;;;;;;;0.39;78.30;96209.19;6179362;23;20469;-58
2021/12/21 11:12:49;;;;;;;33.30;24.92;;;;;;;0.33;77.65;96220.66;6179761;23;20322;-59
2021/12/21 11:15:38;;;;;;;32.88;24.90;;;;;;;0.56;78.42;96211.91;6179625;23;20025;-59
2021/12/21 11:18:09;;;;;;;28.23;24.00;;;;;;;0.73;77.16;96217.25;6178848;23;20455;-59
2021/12/21 11:20:37;;;;;;;35.65;24.92;;;;;;;1.14;77.22;96217.09;6179869;22;20009;-59
2021/12/21 11:23:05;;;;;;;30.77;23.13;;;;;;;1.43;75.60;96210.53;6179661;23;20085;-58
2021/12/21 11:25:34;;;;;;;29.00;22.73;;;;;;;1.20;74.95;96201.25;6179669;23;20475;-58
2021/12/21 11:28:03;;;;;;;32.72;26.88;;;;;;;1.13;75.41;96200.69;6179329;23;20097;-59
2021/12/21 11:30:29;;;;;;;36.55;28.17;;;;;;;1.45;76.06;96184.53;6179823;23;20008;-59
2021/12/21 11:32:57;;;;;;;42.28;29.42;;;;;;;1.61;73.57;96184.63;6179225;23;20076;-59
2021/12/21 11:37:59;;;;;;;34.05;27.85;;;;;;;1.89;71.47;96180.69;6179648;23;20009;-59
2021/12/21 11:40:27;;;;;;;34.42;26.63;;;;;;;2.09;71.01;96176.22;6179811;23;20023;-59
2021/12/21 11:43:17;;;;;;;32.00;24.38;;;;;;;2.32;71.44;96163.81;6179071;23;20062;-59
2021/12/21 11:46:01;;;;;;;32.50;25.17;;;;;;;2.32;70.40;96159.47;6179317;23;20079;-59
2021/12/21 11:48:37;;;;;;;32.70;25.95;;;;;;;1.73;71.92;96157.22;6179258;23;20008;-59
2021/12/21 11:51:09;;;;;;;29.48;25.38;;;;;;;1.67;72.13;96155.78;6179557;23;20348;-59
2021/12/21 11:53:35;;;;;;;28.80;24.13;;;;;;;1.93;71.60;96148.44;6179337;23;20005;-59
2021/12/21 11:56:01;;;;;;;26.83;22.25;;;;;;;1.69;72.07;96151.34;6179503;23;20055;-59
2021/12/21 11:58:32;;;;;;;33.17;25.00;;;;;;;1.73;72.30;96151.19;6179271;23;20009;-59
2021/12/21 12:01:03;;;;;;;30.67;25.83;;;;;;;1.83;72.42;96157.59;6179275;23;20008;-59
2021/12/21 12:03:32;;;;;;;26.58;23.33;;;;;;;2.25;72.20;96148.53;6178938;23;20020;-59
2021/12/21 12:05:59;;;;;;;29.10;24.15;;;;;;;2.39;71.65;96163.41;6179215;23;20082;-59
2021/12/21 12:08:27;;;;;;;32.42;26.42;;;;;;;2.31;70.13;96159.53;6179368;23;20005;-58
2021/12/21 12:11:02;;;;;;;29.00;24.50;;;;;;;2.36;70.26;96154.94;6179196;23;20001;-60
2021/12/21 12:13:43;;;;;;;32.97;26.98;;;;;;;2.47;71.23;96155.22;6179437;23;20009;-59
2021/12/21 12:16:14;;;;;;;31.85;25.85;;;;;;;2.23;71.51;96149.56;6179450;23;20024;-59
2021/12/21 12:18:46;;;;;;;28.00;24.65;;;;;;;1.99;71.13;96144.69;6179289;23;20073;-61
2021/12/21 12:21:15;;;;;;;27.65;22.98;;;;;;;2.14;71.10;96141.28;6179331;23;20005;-59